sensor_id;sensor_type;location;lat;lon;timestamp;pressure;altitude;pressure_sealevel;temperature;humidity
63582;BME280;49727;51.078;17.066;2023-03-11T00:00:48;97451.09;;;8.01;68.91
63582;BME280;49727;51.078;17.066;2023-03-11T00:15:50;97447.28;;;7.97;69.16
63582;BME280;49727;51.078;17.066;2023-03-11T00:30:51;97450.94;;;7.96;67.94
63582;BME280;49727;51.078;17.066;2023-03-11T00:45:52;97440.53;;;7.76;67.48
63582;BME280;49727;51.078;17.066;2023-03-11T01:00:52;97446.97;;;7.68;66.81
63582;BME280;49727;51.078;17.066;2023-03-11T01:15:53;97448.50;;;7.57;66.73
63582;BME280;49727;51.078;17.066;2023-03-11T01:30:53;97475.69;;;7.21;67.16
63582;BME280;49727;51.078;17.066;2023-03-11T02:00:54;97467.84;;;6.75;69.51
63582;BME280;49727;51.078;17.066;2023-03-11T02:15:55;97479.91;;;6.65;70.42
63582;BME280;49727;51.078;17.066;2023-03-11T02:30:56;97481.84;;;6.37;70.38
63582;BME280;49727;51.078;17.066;2023-03-11T02:45:57;97468.84;;;6.36;71.22
63582;BME280;49727;51.078;17.066;2023-03-11T03:00:57;97477.00;;;6.28;71.51
63582;BME280;49727;51.078;17.066;2023-03-11T03:15:58;97558.56;;;5.97;69.83
63582;BME280;49727;51.078;17.066;2023-03-11T03:31:06;97558.19;;;4.71;67.83
63582;BME280;49727;51.078;17.066;2023-03-11T03:46:06;97572.53;;;4.14;66.99
63582;BME280;49727;51.078;17.066;2023-03-11T04:01:08;97604.47;;;3.54;66.68
63582;BME280;49727;51.078;17.066;2023-03-11T04:16:13;97642.56;;;3.15;66.64
63582;BME280;49727;51.078;17.066;2023-03-11T04:31:14;97636.09;;;2.81;66.22
63582;BME280;49727;51.078;17.066;2023-03-11T04:46:15;97660.31;;;2.46;66.46
63582;BME280;49727;51.078;17.066;2023-03-11T05:01:15;97683.25;;;2.14;66.97
63582;BME280;49727;51.078;17.066;2023-03-11T05:16:16;97702.78;;;1.74;68.42
63582;BME280;49727;51.078;17.066;2023-03-11T05:31:16;97718.56;;;1.42;69.51
63582;BME280;49727;51.078;17.066;2023-03-11T05:46:17;97749.59;;;1.30;70.91
63582;BME280;49727;51.078;17.066;2023-03-11T06:01:18;97765.56;;;1.21;71.46
63582;BME280;49727;51.078;17.066;2023-03-11T06:16:20;97771.69;;;0.96;72.57
63582;BME280;49727;51.078;17.066;2023-03-11T06:31:23;97829.72;;;0.85;73.71
63582;BME280;49727;51.078;17.066;2023-03-11T06:46:24;97865.75;;;0.83;74.63
63582;BME280;49727;51.078;17.066;2023-03-11T07:01:25;97905.41;;;0.88;74.62
63582;BME280;49727;51.078;17.066;2023-03-11T07:16:28;97950.31;;;1.01;75.37
63582;BME280;49727;51.078;17.066;2023-03-11T07:31:31;97974.88;;;1.17;75.29
63582;BME280;49727;51.078;17.066;2023-03-11T07:46:31;98023.72;;;1.26;75.17
63582;BME280;49727;51.078;17.066;2023-03-11T08:01:32;98069.13;;;1.18;75.49
63582;BME280;49727;51.078;17.066;2023-03-11T08:16:35;98118.16;;;1.34;75.47
63582;BME280;49727;51.078;17.066;2023-03-11T08:31:38;98187.72;;;1.47;74.93
63582;BME280;49727;51.078;17.066;2023-03-11T08:46:38;98236.91;;;1.53;74.78
63582;BME280;49727;51.078;17.066;2023-03-11T09:01:39;98279.78;;;1.62;74.34
63582;BME280;49727;51.078;17.066;2023-03-11T09:16:40;98343.53;;;1.54;74.45
63582;BME280;49727;51.078;17.066;2023-03-11T09:31:40;98389.53;;;1.66;74.70
63582;BME280;49727;51.078;17.066;2023-03-11T10:02:20;98492.63;;;2.54;73.05
63582;BME280;49727;51.078;17.066;2023-03-11T10:33:20;98552.91;;;3.31;70.69
63582;BME280;49727;51.078;17.066;2023-03-11T10:48:24;98571.16;;;3.82;69.07
63582;BME280;49727;51.078;17.066;2023-03-11T11:03:25;98610.19;;;3.87;68.11
63582;BME280;49727;51.078;17.066;2023-03-11T11:18:32;98640.03;;;6.01;66.15
63582;BME280;49727;51.078;17.066;2023-03-11T11:33:48;98679.16;;;3.99;64.10
63582;BME280;49727;51.078;17.066;2023-03-11T11:49:15;98719.34;;;4.26;64.65
63582;BME280;49727;51.078;17.066;2023-03-11T12:04:50;98723.78;;;4.50;64.21
63582;BME280;49727;51.078;17.066;2023-03-11T12:20:07;98758.28;;;5.13;63.01
63582;BME280;49727;51.078;17.066;2023-03-11T12:35:28;98769.44;;;5.63;60.96
63582;BME280;49727;51.078;17.066;2023-03-11T12:50:41;98781.06;;;7.37;56.20
63582;BME280;49727;51.078;17.066;2023-03-11T13:36:46;98916.78;;;6.63;53.36
63582;BME280;49727;51.078;17.066;2023-03-11T13:51:49;98951.72;;;5.71;54.39
63582;BME280;49727;51.078;17.066;2023-03-11T14:06:50;98949.94;;;4.56;53.82
63582;BME280;49727;51.078;17.066;2023-03-11T14:21:51;99023.50;;;3.46;54.88
63582;BME280;49727;51.078;17.066;2023-03-11T14:36:54;99037.22;;;2.95;55.19
63582;BME280;49727;51.078;17.066;2023-03-11T14:52:00;99066.31;;;2.48;55.92
63582;BME280;49727;51.078;17.066;2023-03-11T15:07:04;99079.06;;;2.43;56.61
63582;BME280;49727;51.078;17.066;2023-03-11T15:22:30;99108.47;;;2.56;56.48
63582;BME280;49727;51.078;17.066;2023-03-11T15:37:34;99123.59;;;2.44;56.56
63582;BME280;49727;51.078;17.066;2023-03-11T15:52:34;99153.25;;;2.27;56.05
63582;BME280;49727;51.078;17.066;2023-03-11T16:07:34;99183.59;;;2.11;55.49
63582;BME280;49727;51.078;17.066;2023-03-11T16:22:36;99205.56;;;2.00;55.67
63582;BME280;49727;51.078;17.066;2023-03-11T16:37:38;99240.69;;;1.90;55.64
63582;BME280;49727;51.078;17.066;2023-03-11T16:52:38;99264.88;;;1.74;55.87
63582;BME280;49727;51.078;17.066;2023-03-11T17:07:39;99284.31;;;1.61;55.79
63582;BME280;49727;51.078;17.066;2023-03-11T17:22:39;99317.75;;;1.49;55.73
63582;BME280;49727;51.078;17.066;2023-03-11T17:37:40;99341.22;;;1.41;55.79
63582;BME280;49727;51.078;17.066;2023-03-11T17:52:40;99369.22;;;1.10;56.13
63582;BME280;49727;51.078;17.066;2023-03-11T18:07:40;99394.81;;;0.75;59.17
63582;BME280;49727;51.078;17.066;2023-03-11T18:22:42;99418.41;;;0.96;60.97
63582;BME280;49727;51.078;17.066;2023-03-11T18:37:44;99439.38;;;0.43;62.46
63582;BME280;49727;51.078;17.066;2023-03-11T18:52:44;99461.84;;;-0.10;63.82
63582;BME280;49727;51.078;17.066;2023-03-11T19:07:44;99480.38;;;-0.58;65.33
63582;BME280;49727;51.078;17.066;2023-03-11T19:22:45;99498.59;;;-0.92;66.73
63582;BME280;49727;51.078;17.066;2023-03-11T19:37:46;99529.75;;;-1.13;67.64
63582;BME280;49727;51.078;17.066;2023-03-11T19:52:46;99539.97;;;-1.34;68.35
63582;BME280;49727;51.078;17.066;2023-03-11T20:07:47;99548.34;;;-1.42;69.36
63582;BME280;49727;51.078;17.066;2023-03-11T20:22:47;99565.75;;;-1.54;69.72
63582;BME280;49727;51.078;17.066;2023-03-11T20:37:48;99580.19;;;-1.74;69.73
63582;BME280;49727;51.078;17.066;2023-03-11T20:52:49;99577.28;;;-1.82;70.50
63582;BME280;49727;51.078;17.066;2023-03-11T21:07:50;99571.03;;;-1.93;70.18
63582;BME280;49727;51.078;17.066;2023-03-11T21:22:50;99571.66;;;-2.02;70.71
63582;BME280;49727;51.078;17.066;2023-03-11T21:37:51;99572.50;;;-2.14;70.73
63582;BME280;49727;51.078;17.066;2023-03-11T21:52:53;99583.44;;;-2.22;71.61
63582;BME280;49727;51.078;17.066;2023-03-11T22:07:53;99581.97;;;-2.26;71.71
63582;BME280;49727;51.078;17.066;2023-03-11T22:22:54;99580.41;;;-2.42;71.92
63582;BME280;49727;51.078;17.066;2023-03-11T22:37:54;99589.97;;;-2.42;72.49
63582;BME280;49727;51.078;17.066;2023-03-11T22:52:55;99599.81;;;-2.46;73.07
63582;BME280;49727;51.078;17.066;2023-03-11T23:07:56;99609.91;;;-2.54;72.76
63582;BME280;49727;51.078;17.066;2023-03-11T23:22:56;99620.00;;;-2.62;72.97
63582;BME280;49727;51.078;17.066;2023-03-11T23:37:57;99634.91;;;-2.64;73.59
63582;BME280;49727;51.078;17.066;2023-03-11T23:52:57;99626.72;;;-2.45;73.69
